createdAt,value
2017-11-13T00:00:23.160Z,6.30
2017-11-13T00:02:50.628Z,6.30
2017-11-13T00:05:18.113Z,6.30
2017-11-13T00:07:46.349Z,6.30
2017-11-13T00:10:13.836Z,6.20
2017-11-13T00:12:42.074Z,6.20
2017-11-13T00:15:09.573Z,6.20
2017-11-13T00:17:37.821Z,6.10
2017-11-13T00:20:05.299Z,6.10
2017-11-13T00:22:33.561Z,6.00
2017-11-13T00:25:01.040Z,6.00
2017-11-13T00:27:29.288Z,5.90
2017-11-13T00:29:56.762Z,5.90
2017-11-13T00:32:25.048Z,5.90
2017-11-13T00:34:53.322Z,6.00
2017-11-13T00:37:21.593Z,6.00
2017-11-13T00:39:49.062Z,6.00
2017-11-13T00:42:17.317Z,6.00
2017-11-13T00:44:44.831Z,6.00
2017-11-13T00:47:12.296Z,6.00
2017-11-13T00:49:39.792Z,6.00
2017-11-13T00:52:07.262Z,6.00
2017-11-13T00:54:34.750Z,6.00
2017-11-13T00:57:02.229Z,5.90
2017-11-13T00:59:29.729Z,5.90
2017-11-13T01:01:57.205Z,5.90
2017-11-13T01:04:25.449Z,5.90
2017-11-13T01:06:52.928Z,5.90
2017-11-13T01:09:20.432Z,5.90
2017-11-13T01:11:47.913Z,5.90
2017-11-13T01:14:15.380Z,5.90
2017-11-13T01:16:42.870Z,5.90
2017-11-13T01:19:11.145Z,5.80
2017-11-13T01:21:39.421Z,5.70
2017-11-13T01:24:07.697Z,5.60
2017-11-13T01:26:35.937Z,5.70
2017-11-13T01:29:03.427Z,5.70
2017-11-13T01:31:31.686Z,5.60
2017-11-13T01:33:59.182Z,5.60
2017-11-13T01:36:27.412Z,5.60
2017-11-13T01:38:54.892Z,5.60
2017-11-13T01:41:22.365Z,5.50
2017-11-13T01:43:50.630Z,5.50
2017-11-13T01:46:18.873Z,5.50
2017-11-13T01:48:46.343Z,5.50
2017-11-13T01:51:13.836Z,5.40
2017-11-13T01:53:42.088Z,5.50
2017-11-13T01:56:09.569Z,5.50
2017-11-13T01:58:37.837Z,5.50
2017-11-13T02:01:06.092Z,5.40
2017-11-13T02:03:33.564Z,5.40
2017-11-13T02:06:01.051Z,5.40
2017-11-13T02:08:28.522Z,5.40
2017-11-13T02:10:55.992Z,5.40
2017-11-13T02:13:23.493Z,5.40
2017-11-13T02:15:51.745Z,5.40
2017-11-13T02:18:19.231Z,5.40
2017-11-13T02:20:46.696Z,5.40
2017-11-13T02:23:14.950Z,5.50
2017-11-13T02:25:42.416Z,5.50
2017-11-13T02:28:09.903Z,5.50
2017-11-13T02:30:38.166Z,5.50
2017-11-13T02:33:06.398Z,5.60
2017-11-13T02:35:33.933Z,5.50
2017-11-13T02:38:01.445Z,5.60
2017-11-13T02:40:28.936Z,5.60
2017-11-13T02:42:57.165Z,5.50
2017-11-13T02:45:24.644Z,5.50
2017-11-13T02:47:52.116Z,5.50
2017-11-13T02:50:20.374Z,5.50
2017-11-13T02:52:47.850Z,5.50
2017-11-13T02:55:16.112Z,5.50
2017-11-13T02:57:44.374Z,5.50
2017-11-13T03:00:11.849Z,5.50
2017-11-13T03:02:39.337Z,5.50
2017-11-13T03:05:06.813Z,5.50
2017-11-13T03:07:34.309Z,5.50
2017-11-13T03:10:01.785Z,5.50
2017-11-13T03:12:30.048Z,5.60
2017-11-13T03:14:57.517Z,5.50
2017-11-13T03:17:25.011Z,5.60
2017-11-13T03:19:52.484Z,5.50
2017-11-13T03:22:19.953Z,5.60
2017-11-13T03:24:47.433Z,5.60
2017-11-13T03:27:14.897Z,5.60
2017-11-13T03:29:42.379Z,5.60
2017-11-13T03:32:10.613Z,5.70
2017-11-13T03:34:38.090Z,5.70
2017-11-13T03:37:05.565Z,5.70
2017-11-13T03:39:33.819Z,5.70
2017-11-13T03:42:01.286Z,5.80
2017-11-13T03:44:28.757Z,5.80
2017-11-13T03:46:57.012Z,5.70
2017-11-13T03:49:24.485Z,5.70
2017-11-13T03:51:52.740Z,5.60
2017-11-13T03:54:20.209Z,5.60
2017-11-13T03:56:47.694Z,5.60
2017-11-13T03:59:15.929Z,5.50
2017-11-13T04:01:43.426Z,5.50
2017-11-13T04:04:11.665Z,5.60
2017-11-13T04:06:39.129Z,5.60
2017-11-13T04:09:06.617Z,5.60
2017-11-13T04:11:34.853Z,5.60
2017-11-13T04:14:02.337Z,5.50
2017-11-13T04:16:29.802Z,5.60
2017-11-13T04:18:58.054Z,5.60
2017-11-13T04:21:25.550Z,5.60
2017-11-13T04:23:53.047Z,5.60
2017-11-13T04:26:20.525Z,5.60
2017-11-13T04:28:47.988Z,5.60
2017-11-13T04:31:15.472Z,5.60
2017-11-13T04:33:43.722Z,5.70
2017-11-13T04:36:11.213Z,5.70
2017-11-13T04:38:39.448Z,5.70
2017-11-13T04:41:06.933Z,5.60
2017-11-13T04:43:35.172Z,5.60
2017-11-13T04:46:02.681Z,5.60
2017-11-13T04:48:30.916Z,5.70
2017-11-13T04:50:58.388Z,5.60
2017-11-13T04:53:25.873Z,5.70
2017-11-13T04:55:54.177Z,5.70
2017-11-13T04:58:21.664Z,5.70
2017-11-13T05:00:49.133Z,5.80
2017-11-13T05:03:16.652Z,5.80
2017-11-13T05:05:44.121Z,5.70
2017-11-13T05:08:11.597Z,5.70
2017-11-13T05:10:39.086Z,5.70
2017-11-13T05:13:07.369Z,5.70
2017-11-13T05:15:35.617Z,5.70
2017-11-13T05:18:03.104Z,5.70
2017-11-13T05:20:31.468Z,5.70
2017-11-13T05:22:58.941Z,5.70
2017-11-13T05:25:27.176Z,5.80
2017-11-13T05:27:54.677Z,5.80
2017-11-13T05:30:22.921Z,5.90
2017-11-13T05:32:50.404Z,5.90
2017-11-13T05:35:18.644Z,5.90
2017-11-13T05:37:46.137Z,5.90
2017-11-13T05:40:14.381Z,6.00
2017-11-13T05:42:41.894Z,6.00
2017-11-13T05:45:09.393Z,6.10
2017-11-13T05:47:36.873Z,6.10
2017-11-13T05:50:04.362Z,6.10
2017-11-13T05:52:32.598Z,6.20
2017-11-13T05:55:00.092Z,6.10
2017-11-13T05:57:28.325Z,6.10
2017-11-13T05:59:55.815Z,6.10
2017-11-13T06:02:24.058Z,6.10
2017-11-13T06:04:51.561Z,6.10
2017-11-13T06:07:19.796Z,6.00
2017-11-13T06:09:47.281Z,6.00
2017-11-13T06:12:14.775Z,6.00
2017-11-13T06:14:42.244Z,6.00
2017-11-13T06:17:09.760Z,5.90
2017-11-13T06:19:38.005Z,5.90
2017-11-13T06:22:05.493Z,5.90
2017-11-13T06:24:32.966Z,5.90
2017-11-13T06:27:01.235Z,5.90
2017-11-13T06:29:29.480Z,5.90
2017-11-13T06:31:56.948Z,5.90
2017-11-13T06:34:24.428Z,5.90
2017-11-13T06:36:52.665Z,6.00
2017-11-13T06:39:20.140Z,6.00
2017-11-13T06:41:47.616Z,6.10
2017-11-13T06:44:15.869Z,6.10
2017-11-13T06:46:43.332Z,6.10
2017-11-13T06:49:11.056Z,6.10
2017-11-13T06:51:38.544Z,6.20
2017-11-13T06:54:06.034Z,6.20
2017-11-13T06:56:34.284Z,6.30
2017-11-13T06:59:01.748Z,6.20
2017-11-13T07:01:29.230Z,6.30
2017-11-13T07:03:57.472Z,6.40
2017-11-13T07:06:24.956Z,6.30
2017-11-13T07:08:53.198Z,6.40
2017-11-13T07:11:20.664Z,6.40
2017-11-13T07:13:48.172Z,6.40
2017-11-13T07:16:15.644Z,6.50
2017-11-13T07:18:43.128Z,6.40
2017-11-13T07:21:10.611Z,6.40
2017-11-13T07:23:38.101Z,6.40
2017-11-13T07:26:06.337Z,6.50
2017-11-13T07:28:33.807Z,6.50
2017-11-13T07:31:01.293Z,6.50
2017-11-13T07:33:28.766Z,6.50
2017-11-13T07:35:56.252Z,6.50
2017-11-13T07:38:23.726Z,6.50
2017-11-13T07:40:51.209Z,6.50
2017-11-13T07:43:19.447Z,6.70
2017-11-13T07:45:46.945Z,6.60
2017-11-13T07:48:15.185Z,6.70
2017-11-13T07:50:42.656Z,6.70
2017-11-13T07:53:10.954Z,6.80
2017-11-13T07:55:39.195Z,6.80
2017-11-13T07:58:06.689Z,6.80
2017-11-13T08:00:34.931Z,6.80
2017-11-13T08:03:02.425Z,6.80
2017-11-13T08:05:30.660Z,6.90
2017-11-13T08:07:58.194Z,6.80
2017-11-13T08:10:25.666Z,6.80
2017-11-13T08:12:53.146Z,6.80
2017-11-13T08:15:20.632Z,6.90
2017-11-13T08:17:48.868Z,6.80
2017-11-13T08:20:16.355Z,6.80
2017-11-13T08:22:44.594Z,6.80
2017-11-13T08:25:12.088Z,6.80
2017-11-13T08:27:39.564Z,6.80
2017-11-13T08:30:07.821Z,6.70
2017-11-13T08:32:36.069Z,6.60
2017-11-13T08:35:03.535Z,6.60
2017-11-13T08:37:31.028Z,6.60
2017-11-13T08:39:59.267Z,6.60
2017-11-13T08:42:26.869Z,6.60
2017-11-13T08:44:55.109Z,6.60
2017-11-13T08:47:22.592Z,6.60
2017-11-13T08:49:50.836Z,6.80
2017-11-13T08:52:18.337Z,6.80
2017-11-13T08:54:46.594Z,6.90
2017-11-13T08:57:14.072Z,6.90
2017-11-13T08:59:42.317Z,7.00
2017-11-13T09:02:09.794Z,7.00
2017-11-13T09:04:38.058Z,7.10
2017-11-13T09:07:05.548Z,7.10
2017-11-13T09:09:33.792Z,7.20
2017-11-13T09:12:01.283Z,7.20
2017-11-13T09:14:29.788Z,7.30
2017-11-13T09:16:57.277Z,7.30
2017-11-13T09:19:24.744Z,7.40
2017-11-13T09:21:52.252Z,7.50
2017-11-13T09:24:19.724Z,7.50
2017-11-13T09:26:47.253Z,7.60
2017-11-13T09:29:15.489Z,7.70
2017-11-13T09:31:43.181Z,7.70
2017-11-13T09:34:11.424Z,7.90
2017-11-13T09:36:38.936Z,7.90
2017-11-13T09:39:06.426Z,8.00
2017-11-13T09:41:33.943Z,8.00
2017-11-13T09:44:02.219Z,8.20
2017-11-13T09:46:30.471Z,8.50
2017-11-13T09:48:57.961Z,8.50
2017-11-13T09:51:26.204Z,8.60
2017-11-13T09:53:53.687Z,8.50
2017-11-13T09:56:21.961Z,8.70
2017-11-13T09:58:50.203Z,8.70
2017-11-13T10:01:17.737Z,8.70
2017-11-13T10:03:45.249Z,8.80
2017-11-13T10:06:13.509Z,8.80
2017-11-13T10:08:40.976Z,8.80
2017-11-13T10:11:08.471Z,8.80
2017-11-13T10:13:36.041Z,8.80
2017-11-13T10:16:03.509Z,8.90
2017-11-13T10:18:32.141Z,8.90
2017-11-13T10:21:00.392Z,9.00
2017-11-13T10:23:27.880Z,9.00
2017-11-13T10:25:56.133Z,9.10
2017-11-13T10:28:23.637Z,9.10
2017-11-13T10:30:51.147Z,9.10
2017-11-13T10:33:18.640Z,9.10
2017-11-13T10:35:46.881Z,9.20
2017-11-13T10:38:14.361Z,9.10
2017-11-13T10:40:42.617Z,9.20
2017-11-13T10:43:10.098Z,9.20
2017-11-13T10:45:38.357Z,9.40
2017-11-13T10:48:05.828Z,9.30
2017-11-13T10:50:33.317Z,9.40
2017-11-13T10:53:00.792Z,9.40
2017-11-13T10:55:28.298Z,9.50
2017-11-13T10:57:55.807Z,9.60
2017-11-13T11:00:26.235Z,9.50
2017-11-13T11:02:53.716Z,9.60
2017-11-13T11:05:21.187Z,9.60
2017-11-13T11:07:48.676Z,9.70
2017-11-13T11:10:16.920Z,9.60
2017-11-13T11:12:44.409Z,9.60
2017-11-13T11:15:20.281Z,9.80
2017-11-13T11:21:14.865Z,9.80
2017-11-13T11:23:42.940Z,9.80
2017-11-13T11:26:16.160Z,9.80
2017-11-13T11:28:59.292Z,10.00
2017-11-13T11:31:29.268Z,10.20
2017-11-13T11:34:03.289Z,10.10
2017-11-13T11:36:35.502Z,10.20
2017-11-13T11:39:03.004Z,10.10
2017-11-13T11:41:31.243Z,9.90
2017-11-13T11:44:04.453Z,9.90
2017-11-13T11:46:31.933Z,10.00
2017-11-13T11:52:03.300Z,9.70
2017-11-13T11:54:31.700Z,9.60
2017-11-13T11:57:09.874Z,9.60
2017-11-13T11:59:37.385Z,9.50
2017-11-13T12:02:04.863Z,9.50
2017-11-13T12:04:32.332Z,9.60
2017-11-13T12:06:59.832Z,9.60
2017-11-13T12:09:27.337Z,9.70
2017-11-13T12:11:54.840Z,9.80
2017-11-13T12:14:22.318Z,9.80
2017-11-13T12:16:50.593Z,10.40
2017-11-13T12:19:18.853Z,10.60
2017-11-13T12:21:46.349Z,10.60
2017-11-13T12:24:13.842Z,10.50
2017-11-13T12:26:41.312Z,10.50
2017-11-13T12:29:08.817Z,10.50
2017-11-13T12:31:37.080Z,10.30
2017-11-13T12:34:05.383Z,10.20
2017-11-13T12:36:32.939Z,10.20
2017-11-13T12:39:00.450Z,10.10
2017-11-13T12:41:27.953Z,10.00
2017-11-13T12:43:55.450Z,10.00
2017-11-13T12:46:22.949Z,10.00
2017-11-13T12:48:51.228Z,10.00
2017-11-13T12:51:19.468Z,10.20
2017-11-13T12:53:46.954Z,10.10
2017-11-13T12:56:14.454Z,10.20
2017-11-13T12:58:41.935Z,10.50
2017-11-13T13:01:09.441Z,10.60
2017-11-13T13:03:37.685Z,10.90
2017-11-13T13:06:05.173Z,10.90
2017-11-13T13:08:33.420Z,11.30
2017-11-13T13:11:00.920Z,11.30
2017-11-13T13:13:29.177Z,11.20
2017-11-13T13:15:57.499Z,10.90
2017-11-13T13:18:24.998Z,10.90
2017-11-13T13:20:52.485Z,10.80
2017-11-13T13:23:20.737Z,11.20
2017-11-13T13:25:48.225Z,11.10
2017-11-13T13:28:16.478Z,11.50
2017-11-13T13:30:43.949Z,11.50
2017-11-13T13:33:12.217Z,11.40
2017-11-13T13:35:39.701Z,11.40
2017-11-13T13:38:07.211Z,11.40
2017-11-13T13:40:34.704Z,11.20
2017-11-13T13:43:02.957Z,10.90
2017-11-13T13:45:30.541Z,10.90
2017-11-13T13:47:58.788Z,11.00
2017-11-13T13:50:26.309Z,11.00
2017-11-13T13:52:53.798Z,10.90
2017-11-13T13:55:21.278Z,10.70
2017-11-13T13:57:48.792Z,10.70
2017-11-13T14:00:16.288Z,10.70
2017-11-13T14:02:43.781Z,10.70
2017-11-13T14:05:11.272Z,10.60
2017-11-13T14:07:38.777Z,10.70
2017-11-13T14:10:06.252Z,10.60
2017-11-13T14:12:34.493Z,10.50
2017-11-13T14:15:02.003Z,10.50
2017-11-13T14:17:29.478Z,10.50
2017-11-13T14:19:56.973Z,10.60
2017-11-13T14:22:24.500Z,10.60
2017-11-13T14:24:51.984Z,10.60
2017-11-13T14:27:19.461Z,10.50
2017-11-13T14:29:46.967Z,10.50
2017-11-13T14:32:14.453Z,10.40
2017-11-13T14:34:41.937Z,10.30
2017-11-13T14:37:10.202Z,10.10
2017-11-13T14:39:37.681Z,10.10
2017-11-13T14:42:05.949Z,10.00
2017-11-13T14:44:34.202Z,10.00
2017-11-13T14:47:01.725Z,10.00
2017-11-13T14:49:29.253Z,9.90
2017-11-13T14:51:57.508Z,9.90
2017-11-13T14:54:25.769Z,9.90
2017-11-13T14:56:53.256Z,9.90
2017-11-13T14:59:21.521Z,9.90
2017-11-13T15:01:48.999Z,9.90
2017-11-13T15:04:17.257Z,9.90
2017-11-13T15:06:45.525Z,9.90
2017-11-13T15:09:13.021Z,9.90
2017-11-13T15:11:41.278Z,9.90
2017-11-13T15:14:09.524Z,9.80
2017-11-13T15:16:37.030Z,9.90
2017-11-13T15:19:05.286Z,9.80
2017-11-13T15:21:33.595Z,9.70
2017-11-13T15:24:01.071Z,9.70
2017-11-13T15:26:28.544Z,9.70
2017-11-13T15:28:56.030Z,9.60
2017-11-13T15:31:23.516Z,9.60
2017-11-13T15:33:51.015Z,9.60
2017-11-13T15:36:18.489Z,9.50
2017-11-13T15:38:45.980Z,9.50
2017-11-13T15:41:14.221Z,9.40
2017-11-13T15:43:41.712Z,9.40
2017-11-13T15:46:09.327Z,9.30
2017-11-13T15:48:36.805Z,9.30
2017-11-13T15:51:04.308Z,9.20
2017-11-13T15:53:31.783Z,9.20
2017-11-13T15:55:59.294Z,9.10
2017-11-13T15:58:26.763Z,9.10
2017-11-13T16:00:55.080Z,9.00
2017-11-13T16:03:22.611Z,9.00
2017-11-13T16:05:50.868Z,8.90
2017-11-13T16:08:18.344Z,8.90
2017-11-13T16:10:46.589Z,8.90
2017-11-13T16:13:14.072Z,8.90
2017-11-13T16:15:42.313Z,8.80
2017-11-13T16:18:09.918Z,8.80
2017-11-13T16:20:38.157Z,8.70
2017-11-13T16:23:05.667Z,8.70
2017-11-13T16:25:33.165Z,8.70
2017-11-13T16:28:00.660Z,8.70
2017-11-13T16:30:28.919Z,8.60
2017-11-13T16:32:56.417Z,8.60
2017-11-13T16:35:23.885Z,8.50
2017-11-13T16:37:51.363Z,8.50
2017-11-13T16:40:18.849Z,8.50
2017-11-13T16:42:46.322Z,8.50
2017-11-13T16:45:14.576Z,8.40
2017-11-13T16:47:42.056Z,8.40
2017-11-13T16:50:09.571Z,8.40
2017-11-13T16:52:37.064Z,8.30
2017-11-13T16:55:04.553Z,8.30
2017-11-13T16:57:32.794Z,8.30
2017-11-13T17:00:00.271Z,8.20
2017-11-13T17:02:28.546Z,8.20
2017-11-13T17:04:56.788Z,8.20
2017-11-13T17:07:24.322Z,8.20
2017-11-13T17:09:51.788Z,8.20
2017-11-13T17:12:19.277Z,8.20
2017-11-13T17:14:46.764Z,8.20
2017-11-13T17:17:14.281Z,8.20
2017-11-13T17:19:41.760Z,8.20
2017-11-13T17:22:09.234Z,8.20
2017-11-13T17:24:37.489Z,8.30
2017-11-13T17:27:04.964Z,8.20
2017-11-13T17:29:33.243Z,8.20
2017-11-13T17:32:01.483Z,8.20
2017-11-13T17:34:29.022Z,8.20
2017-11-13T17:36:56.489Z,8.20
2017-11-13T17:39:24.033Z,8.20
2017-11-13T17:41:51.524Z,8.20
2017-11-13T17:44:18.989Z,8.20
2017-11-13T17:46:46.522Z,8.20
2017-11-13T17:49:14.009Z,8.10
2017-11-13T17:51:42.289Z,8.10
2017-11-13T17:54:09.781Z,8.10
2017-11-13T17:56:38.045Z,8.00
2017-11-13T17:59:06.323Z,8.00
2017-11-13T18:01:34.574Z,8.00
2017-11-13T18:04:02.057Z,8.00
2017-11-13T18:06:30.292Z,8.00
2017-11-13T18:08:57.785Z,8.00
2017-11-13T18:11:26.047Z,7.90
2017-11-13T18:13:53.536Z,7.90
2017-11-13T18:16:21.773Z,7.80
2017-11-13T18:18:49.261Z,7.80
2017-11-13T18:21:17.500Z,7.70
2017-11-13T18:23:44.976Z,7.70
2017-11-13T18:26:12.465Z,7.70
2017-11-13T18:28:40.700Z,7.70
2017-11-13T18:31:08.189Z,7.70
2017-11-13T18:33:36.428Z,7.70
2017-11-13T18:36:04.057Z,7.60
2017-11-13T18:38:31.561Z,7.60
2017-11-13T18:40:59.057Z,7.60
2017-11-13T18:43:26.528Z,7.60
2017-11-13T18:45:54.000Z,7.60
2017-11-13T18:48:21.489Z,7.70
2017-11-13T18:50:48.961Z,7.70
2017-11-13T18:53:17.229Z,7.70
2017-11-13T18:55:44.704Z,7.60
2017-11-13T18:58:12.957Z,7.70
2017-11-13T19:00:40.494Z,7.60
2017-11-13T19:03:08.000Z,7.60
2017-11-13T19:05:36.252Z,7.60
2017-11-13T19:08:03.723Z,7.60
2017-11-13T19:10:31.304Z,7.60
2017-11-13T19:12:58.787Z,7.70
